Record high temperature 100.4°F Record low temperature 10.6°F Record high gust 40 mph Record high average 22.8 mph Record daily rain 11.65 in. Record low windchill 2.7°F Record high barometer 30.773 in. Record low barometer 29.184 in.
Daily high pressure 29.628 in. Daily low pressure 29.624 in. Daily low windchill 43.3°F Daily high heat index 43.4°F Daily high gust speed 0.0 mph SSW Daily high average speed 0.0 mph S
Forecast: mostly cloudy and cooler. precipitation possible within 12 hours, possibly heavy at times. windy.
On the Greenway Weather Data - Tigard OR
LAST READING AT TIME: 12:17 AM DATE: November 29 2014, time of next update: 12:18 am
Current WeatherNight time/Dry Current Temperature 43.3°F (6.3°C), Apparent temp 42.0°F
Maximum Temperature (since midnight)43.4°F at: 12:00 AM Minimum Temperature (since midnight)43.3°F at: 12:08 AM
Average windspeed (ten minute)0.0 mph Wind Direction (ten minute)S (180°)
Windchill Temperature 43.3°F Maximum Gust (last hour) 3 mph at: 11:38 PM
Maximum Gust (since midnight) 0 mph at: 10:00 AM Maximum 1 minute average (since midnight)0.0 mph at: 2:24 PM
Rainfall (last hour)0.00 in. (0.0 mm) Rainfall (since midnight)0.00 in. (0.0 mm) ---
Rainfall This month 3.37 in. (85.6 mm) Rainfall To date this year 10.46 in. (265.7 mm)
Maximum rain per minute (last hour)0.00 in/min Maximum rain per hour (last 6 hours)0.02 in/hour
Yesterdays rainfall 0.65 in DewPoint 41.1°F (Wet Bulb :42.3°F )
Humidity 92 %, Humidex 42.1°F Barometer corrected to msl29.628 in. (1003.3 hPa)
Pressure change +0.01 in. (last hour) Trend (last hour)STEADY
Pressure change (last 12 hours)+0.10 in Pressure change (last 6 hours)+0.10 in

This page is updated from recent data collected by a DAVIS VANTAGE PRO weather station Use the Reload or Refresh facility on your browser to retrieve the latest data.


Click here for the last 24 hour graph
Click here for the last 48 hour graph
Click here for the last 72 hour graph
Click here for the month to date graph


Weather report/Warning/Metars

PORTLAND-HILLSBORO AIRPORT, OR, United States (KHIO) 45-33N 122-57W 68M
Nov 29, 2014 - 02:53 AM EST / 2014.11.29 0753 UTC
Wind: Variable at 3 MPH (3 KT):0
Visibility: 10 mile(s):0
Sky conditions: overcast
Weather: light rain
Precipitation last hour: A trace
Temperature: 43.0 F (6.1 C)
Dew Point: 42.1 F (5.6 C)
Relative Humidity: 96%
Pressure (altimeter): 29.62 in. Hg (1003 hPa)
ob: KHIO 290753Z AUTO VRB03KT 10SM -RA BKN039 OVC070 06/06 A2962 RMK AO2 RAB51 SLP030 P0000 T00610056 401280050
cycle: 8
PORTLAND INTERNATIONAL  AIRPORT, OR, United States (KPDX) 45-35N 122-36W 7M
Nov 29, 2014 - 02:53 AM EST / 2014.11.29 0753 UTC
Wind: Calm:0
Visibility: 10 mile(s):0
Sky conditions: mostly cloudy
Precipitation last hour: 0.01 inches
Temperature: 43.0 F (6.1 C)
Dew Point: 39.9 F (4.4 C)
Relative Humidity: 88%
Pressure (altimeter): 29.63 in. Hg (1003 hPa)
ob: KPDX 290753Z 00000KT 10SM FEW035 SCT044 BKN080 06/04 A2963 RMK AO2 RAB01E35 SLP031 P0001 T00610044 401330061 
cycle: 8
PORTLAND-TROUTDALE AIRPORT, OR, United States (KTTD) 45-33N 122-25W 14M
Nov 29, 2014 - 02:53 AM EST / 2014.11.29 0753 UTC
Wind: from the SSW (210 degrees) at 3 MPH (3 KT):0
Visibility: 10 mile(s):0
Sky conditions: overcast
Weather: light rain
Precipitation last hour: A trace
Temperature: 45.0 F (7.2 C)
Dew Point: 41.0 F (5.0 C)
Relative Humidity: 85%
Pressure (altimeter): 29.61 in. Hg (1002 hPa)
ob: KTTD 290753Z AUTO 21003KT 10SM -RA OVC039 07/05 A2961 RMK AO2 RAB39 SLP026 P0000 T00720050 401440072 TSNO
cycle: 8
MCMINNVILLE MUNICIPAL AIRPORT , OR, United States (KMMV) 45-12N 123-08W 48M
Nov 29, 2014 - 02:53 AM EST / 2014.11.29 0753 UTC
Wind: from the SW (220 degrees) at 9 MPH (8 KT):0
Visibility: 10 mile(s):0
Sky conditions: mostly cloudy
Precipitation last hour: 0.01 inches
Temperature: 44.1 F (6.7 C)
Dew Point: 39.9 F (4.4 C)
Relative Humidity: 85%
Pressure (altimeter): 29.64 in. Hg (1003 hPa)
ob: KMMV 290753Z AUTO 22008KT 10SM FEW038 SCT049 BKN060 07/04 A2964 RMK AO2 RAB09E38 SLP037 P0001 T00670044 401330061
cycle: 8
SALEM MCNARY FIELD, OR, United States (KSLE) 44-54N 123-00W 59M
Nov 29, 2014 - 02:56 AM EST / 2014.11.29 0756 UTC
Wind: from the W (270 degrees) at 6 MPH (5 KT):0
Visibility: 10 mile(s):0
Sky conditions: overcast
Weather: light rain
Precipitation last hour: A trace
Temperature: 45.0 F (7.2 C)
Dew Point: 39.9 F (4.4 C)
Relative Humidity: 82%
Pressure (altimeter): 29.65 in. Hg (1004 hPa)
ob: KSLE 290756Z AUTO 27005KT 10SM -RA BKN048 OVC060 07/04 A2965 RMK AO2 RAB56 SLP040 P0000 T00720044 401330067
cycle: 8


Sunset at:
4:30 pm

Moonrise at:
12:51 pm 11/29/14

Moonset at:
11:34 pm 11/28/14

First Quarter  29 November 2014
Full moon  6 December 2014
Last Quarter14 December 2014
New moon 22 December 2014
Moon age: 7 days,7 hours,2 minutes,49%
Hours of possible daylight today was 09:02



Use the RELOAD facility on your browser to retrieve the latest data.

Click here for current Fire weather info
Click here for the daily CLIMATOLOGICAL SUMMARY
Click here for a daily update of the averages/extremes to date for the month




Created by "Weather Display" software version 10.37R Build 81 at this start time/date 11:58 am 11/1/2014




On The Greenway Weather Web Site

 
 
HELP US OUT
Help us keep this weather station on the web. for the Tigard / Portland internet users to use. If you would like to help, click the donate button below
 
This site is purely funded by donations and by myself (Ray Cooper)
Anything you can do will help keep this station on the net
Average cost per year is $665 to publish and host this site excluding the cost of the weather equipment
Buyastrostuff.com is kind enough to host our DNS and email at no cost.
THANKS GUYS & Gals for helping
Have a Question,or just want to talk. Contact me at:
Ray Cooper @ Buyastrostuff.com